createdAt,value
2022-12-24T00:02:50.557Z,0.00
2022-12-24T00:07:52.035Z,0.00
2022-12-24T00:12:53.378Z,0.00
2022-12-24T00:17:54.714Z,0.00
2022-12-24T00:22:56.059Z,0.00
2022-12-24T00:27:57.411Z,0.00
2022-12-24T00:32:58.764Z,0.00
2022-12-24T00:38:00.131Z,0.00
2022-12-24T00:43:01.444Z,0.00
2022-12-24T00:48:02.834Z,0.00
2022-12-24T00:53:04.183Z,0.00
2022-12-24T00:58:05.556Z,0.00
2022-12-24T01:03:06.957Z,0.00
2022-12-24T01:08:08.620Z,0.00
2022-12-24T01:13:09.950Z,0.00
2022-12-24T01:18:11.321Z,0.00
2022-12-24T01:23:12.757Z,0.00
2022-12-24T01:28:14.113Z,0.00
2022-12-24T01:33:15.443Z,0.00
2022-12-24T01:38:16.756Z,0.00
2022-12-24T01:43:23.295Z,0.28
2022-12-24T01:48:31.373Z,0.00
2022-12-24T01:53:35.027Z,0.00
2022-12-24T01:58:37.821Z,0.00
2022-12-24T02:03:39.775Z,0.00
2022-12-24T02:08:41.215Z,0.00
2022-12-24T02:13:47.872Z,0.00
2022-12-24T02:19:14.039Z,0.00
2022-12-24T02:24:51.733Z,0.00
2022-12-24T02:29:55.811Z,0.00
2022-12-24T02:35:14.385Z,12.45
2022-12-24T02:40:25.396Z,8.23
2022-12-24T02:45:31.000Z,9.95
2022-12-24T02:50:32.369Z,4.80
2022-12-24T02:55:44.623Z,11.35
2022-12-24T03:01:30.872Z,9.27
2022-12-24T03:06:47.523Z,11.98
2022-12-24T03:12:00.848Z,12.48
2022-12-24T03:17:03.544Z,12.93
2022-12-24T03:22:09.095Z,13.85
2022-12-24T03:27:13.143Z,10.98
2022-12-24T03:32:14.459Z,10.77
2022-12-24T03:37:15.766Z,12.93
2022-12-24T03:42:17.121Z,11.48
2022-12-24T03:47:18.442Z,13.15
2022-12-24T03:52:19.760Z,14.27
2022-12-24T03:57:21.137Z,11.02
2022-12-24T04:02:22.580Z,13.25
2022-12-24T04:07:24.030Z,14.35
2022-12-24T04:12:25.517Z,12.98
2022-12-24T04:17:26.866Z,11.70
2022-12-24T04:22:28.260Z,10.43
2022-12-24T04:27:31.110Z,13.32
2022-12-24T04:32:32.457Z,14.65
2022-12-24T04:37:34.170Z,14.77
2022-12-24T04:42:35.557Z,13.57
2022-12-24T04:47:36.934Z,13.27
2022-12-24T04:52:38.257Z,14.40
2022-12-24T04:57:39.587Z,8.68
2022-12-24T05:02:41.160Z,7.03
2022-12-24T05:07:42.569Z,12.57
2022-12-24T05:12:43.923Z,28.95
2022-12-24T05:17:45.248Z,11.85
2022-12-24T05:23:05.024Z,18.77
2022-12-24T05:28:06.344Z,14.95
2022-12-24T05:33:07.656Z,11.80
2022-12-24T05:38:09.027Z,17.02
2022-12-24T05:43:10.361Z,12.05
2022-12-24T05:48:11.762Z,10.40
2022-12-24T05:53:13.092Z,9.20
2022-12-24T05:58:14.594Z,9.07
2022-12-24T06:03:15.945Z,6.72
2022-12-24T06:08:17.272Z,9.80
2022-12-24T06:13:18.647Z,7.85
2022-12-24T06:18:19.975Z,10.25
2022-12-24T06:23:21.592Z,9.02
2022-12-24T06:28:22.977Z,8.02
2022-12-24T06:33:24.471Z,13.20
2022-12-24T06:38:25.981Z,19.70
2022-12-24T06:43:27.312Z,16.27
2022-12-24T06:48:28.776Z,14.82
2022-12-24T06:53:31.396Z,9.57
2022-12-24T06:58:34.105Z,13.68
2022-12-24T07:08:52.004Z,7.95
2022-12-24T07:13:53.458Z,20.98
2022-12-24T07:18:54.800Z,12.73
2022-12-24T07:23:56.128Z,15.90
2022-12-24T07:28:57.922Z,14.00
2022-12-24T07:33:59.400Z,18.85
2022-12-24T07:39:00.715Z,16.17
2022-12-24T07:44:02.036Z,9.23
2022-12-24T07:49:03.402Z,12.88
2022-12-24T07:54:05.104Z,9.82
2022-12-24T07:59:06.506Z,18.35
2022-12-24T08:04:07.940Z,16.88
2022-12-24T08:09:09.380Z,18.95
2022-12-24T08:14:10.731Z,18.02
2022-12-24T08:19:12.051Z,11.88
2022-12-24T08:24:13.406Z,16.33
2022-12-24T08:29:14.755Z,17.98
2022-12-24T08:34:16.083Z,29.40
2022-12-24T08:39:17.409Z,15.93
2022-12-24T08:44:18.816Z,14.00
2022-12-24T08:49:20.147Z,18.30
2022-12-24T08:54:22.476Z,15.73
2022-12-24T08:59:23.926Z,21.05
2022-12-24T09:04:25.273Z,18.98
2022-12-24T09:09:34.137Z,27.70
2022-12-24T09:14:39.030Z,24.63
2022-12-24T09:19:40.874Z,21.58
2022-12-24T09:24:42.219Z,28.75
2022-12-24T09:29:43.560Z,21.65
2022-12-24T09:34:44.908Z,17.00
2022-12-24T09:39:46.253Z,22.35
2022-12-24T09:44:58.950Z,13.15
2022-12-24T09:50:03.669Z,22.77
2022-12-24T09:55:33.478Z,23.65
2022-12-24T10:00:38.012Z,24.83
2022-12-24T10:06:01.143Z,19.00
2022-12-24T10:11:21.360Z,20.90
2022-12-24T10:16:34.286Z,24.23
2022-12-24T10:22:00.919Z,16.95
2022-12-24T10:27:26.717Z,16.98
2022-12-24T10:32:37.439Z,21.10
2022-12-24T10:37:38.858Z,12.38
2022-12-24T10:42:51.055Z,17.75
2022-12-24T10:47:57.109Z,20.70
2022-12-24T10:53:06.771Z,18.70
2022-12-24T10:58:15.601Z,19.98
2022-12-24T11:03:30.185Z,20.33
2022-12-24T11:08:32.274Z,20.40
2022-12-24T11:13:45.901Z,11.90
2022-12-24T11:18:52.022Z,11.82
2022-12-24T11:23:57.285Z,15.95
2022-12-24T11:29:20.632Z,17.48
2022-12-24T11:34:28.419Z,18.98
2022-12-24T11:39:38.401Z,24.25
2022-12-24T11:44:48.615Z,26.83
2022-12-24T11:49:49.957Z,20.08
2022-12-24T11:55:00.708Z,13.50
2022-12-24T12:00:02.043Z,18.38
2022-12-24T12:05:11.666Z,18.42
2022-12-24T12:10:20.611Z,17.30
2022-12-24T12:15:24.813Z,18.40
2022-12-24T12:20:40.965Z,22.77
2022-12-24T12:25:53.271Z,16.33
2022-12-24T12:31:09.068Z,19.25
2022-12-24T12:36:18.299Z,18.15
2022-12-24T12:41:45.809Z,10.80
2022-12-24T12:46:56.059Z,13.40
2022-12-24T12:52:20.490Z,14.48
2022-12-24T12:57:26.379Z,11.93
2022-12-24T13:02:30.901Z,12.32
2022-12-24T13:07:55.056Z,15.40
2022-12-24T13:13:02.446Z,15.05
2022-12-24T13:23:18.726Z,11.70
2022-12-24T13:28:20.391Z,13.98
2022-12-24T13:33:41.947Z,9.65
2022-12-24T13:38:53.095Z,12.15
2022-12-24T13:44:06.656Z,16.33
2022-12-24T13:49:18.954Z,14.77
2022-12-24T13:54:25.576Z,18.00
2022-12-24T13:59:38.879Z,14.20
2022-12-24T14:04:42.225Z,21.58
2022-12-24T14:09:51.113Z,15.43
2022-12-24T14:14:52.484Z,20.40
2022-12-24T14:20:07.066Z,14.70
2022-12-24T14:25:27.331Z,18.85
2022-12-24T14:30:30.461Z,15.27
2022-12-24T14:35:39.888Z,13.63
2022-12-24T14:41:04.022Z,21.00
2022-12-24T14:46:29.598Z,14.25
2022-12-24T14:52:08.781Z,18.17
2022-12-24T14:57:23.346Z,21.40
2022-12-24T15:02:41.971Z,17.25
2022-12-24T15:07:58.626Z,16.33
2022-12-24T15:13:07.275Z,14.93
2022-12-24T15:18:16.849Z,16.42
2022-12-24T15:23:20.655Z,16.45
2022-12-24T15:28:23.510Z,19.75
2022-12-24T15:33:24.834Z,24.88
2022-12-24T15:38:39.804Z,23.35
2022-12-24T15:43:41.649Z,14.90
2022-12-24T15:48:45.104Z,22.77
2022-12-24T15:53:48.282Z,26.75
2022-12-24T15:58:49.646Z,20.63
2022-12-24T16:03:51.017Z,16.23
2022-12-24T16:08:52.523Z,24.40
2022-12-24T16:14:10.845Z,25.95
2022-12-24T16:19:23.661Z,23.73
2022-12-24T16:24:28.531Z,27.33
2022-12-24T16:29:29.884Z,20.75
2022-12-24T16:34:32.560Z,22.88
2022-12-24T16:39:34.815Z,24.90
2022-12-24T16:44:36.890Z,27.83
2022-12-24T16:49:38.965Z,26.85
2022-12-24T16:54:40.308Z,19.73
2022-12-24T16:59:42.053Z,17.80
2022-12-24T17:04:44.083Z,28.45
2022-12-24T17:09:45.601Z,23.13
2022-12-24T17:14:47.182Z,26.15
2022-12-24T17:19:48.491Z,23.40
2022-12-24T17:24:50.332Z,27.48
2022-12-24T17:29:51.736Z,26.88
2022-12-24T17:34:53.377Z,25.65
2022-12-24T17:39:54.789Z,24.35
2022-12-24T17:44:56.132Z,24.33
2022-12-24T17:49:57.645Z,24.88
2022-12-24T17:54:59.039Z,28.17
2022-12-24T18:00:00.693Z,29.55
2022-12-24T18:05:02.035Z,19.08
2022-12-24T18:10:04.629Z,18.67
2022-12-24T18:15:06.666Z,26.75
2022-12-24T18:20:08.965Z,28.85
2022-12-24T18:25:10.495Z,21.50
2022-12-24T18:30:12.458Z,24.52
2022-12-24T18:35:14.449Z,22.77
2022-12-24T18:40:17.949Z,31.98
2022-12-24T18:45:19.391Z,20.35
2022-12-24T18:50:20.755Z,26.10
2022-12-24T18:55:22.107Z,30.15
2022-12-24T19:00:23.510Z,31.08
2022-12-24T19:05:24.893Z,26.85
2022-12-24T19:10:26.315Z,27.40
2022-12-24T19:15:33.811Z,34.63
2022-12-24T19:20:40.638Z,21.85
2022-12-24T19:25:42.075Z,23.45
2022-12-24T19:30:43.479Z,27.48
2022-12-24T19:35:44.801Z,30.30
2022-12-24T19:40:46.142Z,24.95
2022-12-24T19:45:47.603Z,22.33
2022-12-24T19:50:48.997Z,14.63
2022-12-24T19:55:50.362Z,15.38
2022-12-24T20:00:52.141Z,18.77
2022-12-24T20:05:54.528Z,15.10
2022-12-24T20:10:55.901Z,29.13
2022-12-24T20:15:57.242Z,21.90
2022-12-24T20:21:00.019Z,21.02
2022-12-24T20:26:03.593Z,22.08
2022-12-24T20:31:16.704Z,20.75
2022-12-24T20:36:20.630Z,20.67
2022-12-24T20:41:23.789Z,21.17
2022-12-24T20:46:25.462Z,21.50
2022-12-24T20:51:28.533Z,23.50
2022-12-24T20:56:31.042Z,21.92
2022-12-24T21:01:34.201Z,22.63
2022-12-24T21:06:36.297Z,19.02
2022-12-24T21:11:50.136Z,24.88
2022-12-24T21:16:53.950Z,23.50
2022-12-24T21:21:55.446Z,28.70
2022-12-24T21:26:56.860Z,27.40
2022-12-24T21:31:58.199Z,24.70
2022-12-24T21:36:59.570Z,25.00
2022-12-24T21:42:00.943Z,22.50
2022-12-24T21:47:03.082Z,27.02
2022-12-24T21:52:04.557Z,29.20
2022-12-24T21:57:26.529Z,28.88
2022-12-24T22:02:28.301Z,22.95
2022-12-24T22:07:48.494Z,28.13
2022-12-24T22:12:49.827Z,19.38
2022-12-24T22:17:51.148Z,24.30
2022-12-24T22:22:52.503Z,29.02
2022-12-24T22:27:53.907Z,25.48
2022-12-24T22:32:55.236Z,29.00
2022-12-24T22:38:00.153Z,27.27
2022-12-24T22:43:02.011Z,31.40
2022-12-24T22:48:03.444Z,32.53
2022-12-24T22:53:04.834Z,33.28
2022-12-24T22:58:06.205Z,23.48
2022-12-24T23:03:08.099Z,24.70
2022-12-24T23:08:10.683Z,24.80
2022-12-24T23:13:32.162Z,25.98
2022-12-24T23:18:33.842Z,21.95
2022-12-24T23:23:37.266Z,29.10
2022-12-24T23:28:39.412Z,24.90
2022-12-24T23:33:41.312Z,23.27
2022-12-24T23:38:42.736Z,18.70
2022-12-24T23:43:44.473Z,20.70
2022-12-24T23:48:46.586Z,22.80
2022-12-24T23:53:52.999Z,26.25
2022-12-24T23:58:55.192Z,17.90
